Time;durP1;ratioP1;P1;durP2;ratioP2;P2;SDS_P1;SDS_P2;PMS_P1;PMS_P2;Temp;Humidity;BMP_temperature;BMP_pressure;BME280_temperature;BME280_humidity;BME280_pressure;Samples;Min_cycle;Max_cycle;Signal;HPM_P1;HPM_P2
2023/08/13 00:02:23;;;;;;;5.10;4.60;;;18.20;99.90;;;;;;5137212;27;20249;-78
2023/08/13 00:04:49;;;;;;;4.40;4.10;;;18.20;99.90;;;;;;5136389;27;20609;-77
2023/08/13 00:07:14;;;;;;;4.97;4.57;;;18.30;99.90;;;;;;5137350;27;20168;-77
2023/08/13 00:09:41;;;;;;;4.80;4.40;;;18.30;99.90;;;;;;5137272;27;20644;-78
2023/08/13 00:12:07;;;;;;;4.70;4.30;;;18.30;99.90;;;;;;5137904;27;20218;-77
2023/08/13 00:14:32;;;;;;;4.53;4.23;;;18.30;99.90;;;;;;5144010;27;20162;-79
2023/08/13 00:16:58;;;;;;;4.67;4.30;;;18.30;99.90;;;;;;5149200;27;20204;-77
2023/08/13 00:19:25;;;;;;;4.20;4.00;;;18.30;99.90;;;;;;5139317;27;20183;-78
2023/08/13 00:21:50;;;;;;;4.53;4.23;;;18.30;99.90;;;;;;5139709;27;20173;-79
2023/08/13 00:24:16;;;;;;;4.80;4.40;;;18.30;99.90;;;;;;5139417;27;20169;-82
2023/08/13 00:26:42;;;;;;;4.73;4.33;;;18.20;99.90;;;;;;5138002;27;20169;-76
2023/08/13 00:29:08;;;;;;;4.70;4.37;;;18.20;99.90;;;;;;5146220;27;20195;-79
2023/08/13 00:31:34;;;;;;;4.17;3.97;;;18.20;99.90;;;;;;5145352;27;20173;-76
2023/08/13 00:34:00;;;;;;;4.23;3.93;;;18.20;99.90;;;;;;5137324;27;20568;-77
2023/08/13 00:36:26;;;;;;;4.90;4.50;;;18.20;99.90;;;;;;5137598;27;20240;-78
2023/08/13 00:38:52;;;;;;;4.83;4.33;;;18.10;99.90;;;;;;5139878;27;20173;-79
2023/08/13 00:41:18;;;;;;;4.90;4.60;;;18.00;99.90;;;;;;5143869;27;20180;-79
2023/08/13 00:43:43;;;;;;;4.43;4.17;;;18.00;99.90;;;;;;5145705;27;20176;-80
2023/08/13 00:46:10;;;;;;;4.97;4.23;;;18.00;99.90;;;;;;5148371;27;20177;-78
2023/08/13 00:48:40;;;;;;;4.63;4.30;;;18.00;99.90;;;;;;5144803;27;20180;-77
2023/08/13 00:51:08;;;;;;;4.90;4.50;;;18.00;99.90;;;;;;5147918;27;20161;-77
2023/08/13 00:53:46;;;;;;;4.80;4.40;;;18.00;99.90;;;;;;5152978;27;20229;-79
2023/08/13 00:56:19;;;;;;;5.23;4.73;;;18.00;99.90;;;;;;5148246;27;20284;-77
2023/08/13 00:58:46;;;;;;;5.07;4.53;;;18.10;99.90;;;;;;5139057;27;20154;-78
2023/08/13 01:01:12;;;;;;;4.73;4.40;;;18.10;99.90;;;;;;5136708;27;20539;-79
2023/08/13 01:03:38;;;;;;;5.40;5.00;;;18.20;99.90;;;;;;5157788;27;20179;-78
2023/08/13 01:06:32;;;;;;;4.87;4.43;;;18.20;99.90;;;;;;5136892;27;20173;-79
2023/08/13 01:09:37;;;;;;;4.77;4.33;;;18.30;99.90;;;;;;5135494;27;20266;-79
2023/08/13 01:12:08;;;;;;;5.00;4.60;;;18.30;99.90;;;;;;5106240;27;20183;-78
2023/08/13 01:14:43;;;;;;;4.77;4.47;;;18.30;99.90;;;;;;5150451;27;20150;-78
2023/08/13 01:17:12;;;;;;;4.80;4.53;;;18.20;99.90;;;;;;5149816;27;20200;-77
2023/08/13 01:19:38;;;;;;;4.77;4.33;;;18.20;99.90;;;;;;5136175;27;20252;-77
2023/08/13 01:22:04;;;;;;;4.40;4.20;;;18.20;99.90;;;;;;5136102;27;20247;-77
2023/08/13 01:24:29;;;;;;;5.53;4.70;;;18.20;99.90;;;;;;5135771;27;20168;-78
2023/08/13 01:27:13;;;;;;;4.90;4.40;;;18.30;99.90;;;;;;5135752;27;20219;-77
2023/08/13 01:29:53;;;;;;;4.63;4.33;;;18.30;99.90;;;;;;5135502;27;20248;-76
2023/08/13 01:32:24;;;;;;;4.03;3.73;;;18.30;99.90;;;;;;5133927;27;20172;-77
2023/08/13 01:34:51;;;;;;;4.60;4.30;;;18.30;99.90;;;;;;5135566;27;20520;-77
2023/08/13 01:37:20;;;;;;;4.20;4.00;;;18.20;99.90;;;;;;5135693;27;20624;-77
2023/08/13 01:39:47;;;;;;;4.03;3.83;;;18.10;99.90;;;;;;5137139;27;20161;-77
2023/08/13 01:42:13;;;;;;;4.00;3.70;;;18.10;99.90;;;;;;5135840;27;20206;-78
2023/08/13 01:44:39;;;;;;;4.07;3.77;;;18.10;99.90;;;;;;5135939;27;20222;-78
2023/08/13 01:47:05;;;;;;;4.17;3.97;;;18.00;99.90;;;;;;5135385;27;20172;-78
2023/08/13 01:49:32;;;;;;;4.33;4.03;;;18.00;99.90;;;;;;5139306;27;20177;-80
2023/08/13 01:51:58;;;;;;;4.37;4.07;;;18.00;99.90;;;;;;5150058;27;20165;-78
2023/08/13 01:54:24;;;;;;;6.07;4.87;;;17.90;99.90;;;;;;5140368;27;20248;-80
2023/08/13 01:56:49;;;;;;;4.17;3.97;;;18.00;99.90;;;;;;5134956;27;20319;-80
2023/08/13 01:59:16;;;;;;;4.27;3.97;;;17.90;99.90;;;;;;5135170;27;20161;-78
2023/08/13 02:01:42;;;;;;;4.23;4.03;;;17.90;99.90;;;;;;5134967;27;20184;-77
2023/08/13 02:04:08;;;;;;;4.03;3.83;;;17.90;99.90;;;;;;5135055;28;20169;-77
2023/08/13 02:06:35;;;;;;;4.30;4.10;;;17.90;99.90;;;;;;5133949;28;20177;-77
2023/08/13 02:09:02;;;;;;;4.17;3.87;;;17.90;99.90;;;;;;5135778;27;20165;-78
2023/08/13 02:11:28;;;;;;;4.40;4.10;;;17.90;99.90;;;;;;5135325;27;20225;-78
2023/08/13 02:13:54;;;;;;;4.83;4.43;;;17.80;99.90;;;;;;5140095;27;20169;-76
2023/08/13 02:16:20;;;;;;;4.57;4.30;;;17.80;99.90;;;;;;5142750;27;20279;-78
2023/08/13 02:18:45;;;;;;;4.50;4.20;;;17.80;99.90;;;;;;5142591;27;20200;-77
2023/08/13 02:21:11;;;;;;;5.00;4.60;;;17.80;99.90;;;;;;5140059;27;20225;-79
2023/08/13 02:23:37;;;;;;;4.27;4.07;;;17.70;99.90;;;;;;5138643;27;20184;-78
2023/08/13 02:26:03;;;;;;;4.50;4.10;;;17.70;99.90;;;;;;5150464;27;20199;-78
2023/08/13 02:28:28;;;;;;;4.07;3.87;;;17.60;99.90;;;;;;5141044;27;20252;-79
2023/08/13 02:30:54;;;;;;;4.37;4.10;;;17.60;99.90;;;;;;5138281;27;20695;-80
2023/08/13 02:33:20;;;;;;;4.20;3.93;;;17.60;99.90;;;;;;5138926;27;20176;-77
2023/08/13 02:35:46;;;;;;;4.53;4.13;;;17.60;99.90;;;;;;5138911;27;20177;-77
2023/08/13 02:38:11;;;;;;;4.77;4.37;;;17.60;99.90;;;;;;5143137;27;20164;-78
2023/08/13 02:40:37;;;;;;;4.73;4.10;;;17.60;99.90;;;;;;5156741;27;20154;-78
2023/08/13 02:43:03;;;;;;;4.40;4.20;;;17.60;99.90;;;;;;5140639;27;20280;-79
2023/08/13 02:45:29;;;;;;;4.80;4.50;;;17.60;99.90;;;;;;5140445;27;20180;-78
2023/08/13 02:47:56;;;;;;;4.67;4.30;;;17.60;99.90;;;;;;5140133;27;20166;-79
2023/08/13 02:50:22;;;;;;;4.67;4.30;;;17.60;99.90;;;;;;5152289;27;20182;-81
2023/08/13 02:52:48;;;;;;;4.50;4.20;;;17.60;99.90;;;;;;5150458;27;20585;-77
2023/08/13 02:55:14;;;;;;;4.83;4.53;;;17.50;99.90;;;;;;5139881;27;20236;-77
2023/08/13 02:57:40;;;;;;;4.60;4.20;;;17.50;99.90;;;;;;5140245;27;20205;-79
2023/08/13 03:00:06;;;;;;;4.90;4.60;;;17.50;99.90;;;;;;5140145;27;20223;-78
2023/08/13 03:02:32;;;;;;;4.10;3.90;;;17.50;99.90;;;;;;5139101;27;20181;-78
2023/08/13 03:04:58;;;;;;;4.90;4.60;;;17.50;99.90;;;;;;5139933;27;20600;-77
2023/08/13 03:07:24;;;;;;;4.87;4.47;;;17.40;99.90;;;;;;5140920;27;20233;-80
2023/08/13 03:09:49;;;;;;;4.50;4.13;;;17.40;99.90;;;;;;5140184;27;20173;-77
2023/08/13 03:12:15;;;;;;;4.50;4.20;;;17.40;99.90;;;;;;5145905;27;20164;-79
2023/08/13 03:14:41;;;;;;;4.30;4.10;;;17.30;99.90;;;;;;5145921;27;20586;-76
2023/08/13 03:17:07;;;;;;;4.40;4.10;;;17.30;99.90;;;;;;5139424;27;20693;-77
2023/08/13 03:19:33;;;;;;;4.57;4.27;;;17.30;99.90;;;;;;5139407;27;20194;-77
2023/08/13 03:21:59;;;;;;;4.60;4.30;;;17.30;99.90;;;;;;5140393;27;20173;-78
2023/08/13 03:24:25;;;;;;;4.73;4.33;;;17.30;99.90;;;;;;5144256;27;20180;-77
2023/08/13 03:26:51;;;;;;;5.33;4.23;;;17.20;99.90;;;;;;5149739;27;20177;-76
2023/08/13 03:29:16;;;;;;;4.93;4.63;;;17.30;99.90;;;;;;5139301;27;20244;-79
2023/08/13 03:31:42;;;;;;;4.63;4.33;;;17.30;99.90;;;;;;5138801;27;20177;-76
2023/08/13 03:34:08;;;;;;;4.50;4.20;;;17.20;99.90;;;;;;5140239;27;20177;-76
2023/08/13 03:36:34;;;;;;;4.50;4.20;;;17.30;99.90;;;;;;5139705;27;20714;-78
2023/08/13 03:38:59;;;;;;;5.20;4.80;;;17.30;99.90;;;;;;5139243;27;20169;-78
2023/08/13 03:41:25;;;;;;;4.50;4.20;;;17.20;99.90;;;;;;5144709;27;20175;-78
2023/08/13 03:43:51;;;;;;;4.50;4.30;;;17.30;99.90;;;;;;5143243;27;20184;-77
2023/08/13 03:46:17;;;;;;;5.27;4.67;;;17.20;99.90;;;;;;5139211;27;20218;-77
2023/08/13 03:48:42;;;;;;;4.50;4.20;;;17.20;99.90;;;;;;5140692;27;20259;-77
2023/08/13 03:51:08;;;;;;;4.73;4.43;;;17.20;99.90;;;;;;5138738;27;20177;-77
2023/08/13 03:53:34;;;;;;;4.63;4.33;;;17.20;99.90;;;;;;5140253;27;20230;-75
2023/08/13 03:56:00;;;;;;;4.60;4.30;;;17.20;99.90;;;;;;5138956;27;20647;-77
2023/08/13 03:58:25;;;;;;;5.00;4.67;;;17.10;99.90;;;;;;5139862;27;20177;-76
2023/08/13 04:00:51;;;;;;;4.97;4.67;;;17.10;99.90;;;;;;5139226;27;20204;-77
2023/08/13 04:03:17;;;;;;;4.90;4.43;;;17.10;99.90;;;;;;5139019;27;20181;-79
2023/08/13 04:05:43;;;;;;;4.60;4.30;;;17.10;99.90;;;;;;5140167;27;20169;-79
2023/08/13 04:08:09;;;;;;;4.50;4.20;;;17.10;99.90;;;;;;5151214;27;20172;-78
2023/08/13 04:10:34;;;;;;;5.00;4.60;;;17.20;99.90;;;;;;5139634;27;20195;-78
2023/08/13 04:13:00;;;;;;;4.30;4.10;;;17.20;99.90;;;;;;5139281;27;20600;-79
2023/08/13 04:15:27;;;;;;;4.90;4.60;;;17.20;99.90;;;;;;5150720;27;20161;-79
2023/08/13 04:17:53;;;;;;;4.70;4.30;;;17.20;99.90;;;;;;5144090;27;20542;-78
2023/08/13 04:20:20;;;;;;;4.30;4.00;;;17.20;99.90;;;;;;5137716;27;20169;-77
2023/08/13 04:22:46;;;;;;;5.30;4.90;;;17.10;99.90;;;;;;5138069;27;20258;-80
2023/08/13 04:25:12;;;;;;;4.70;4.40;;;17.20;99.90;;;;;;5137658;27;20202;-80
2023/08/13 04:27:37;;;;;;;5.50;5.10;;;17.10;99.90;;;;;;5159401;27;20643;-77
2023/08/13 04:30:04;;;;;;;5.03;4.50;;;17.20;99.90;;;;;;5139808;27;20168;-77
2023/08/13 04:32:31;;;;;;;5.20;4.70;;;17.20;99.90;;;;;;5138677;27;20222;-76
2023/08/13 04:34:59;;;;;;;4.97;4.57;;;17.30;99.90;;;;;;5152318;27;20173;-77
2023/08/13 04:37:25;;;;;;;4.93;4.63;;;17.30;99.90;;;;;;5138040;27;20668;-76
2023/08/13 04:39:50;;;;;;;4.80;4.50;;;17.30;99.90;;;;;;5136669;27;20187;-77
2023/08/13 04:42:16;;;;;;;4.73;4.43;;;17.30;99.90;;;;;;5138867;27;20632;-77
2023/08/13 04:44:42;;;;;;;5.40;4.93;;;17.30;99.90;;;;;;5137919;27;20180;-79
2023/08/13 04:47:08;;;;;;;4.60;4.30;;;17.30;99.90;;;;;;5138034;27;20177;-77
2023/08/13 04:49:33;;;;;;;5.73;4.90;;;17.30;99.90;;;;;;5138509;27;20627;-77
2023/08/13 04:51:59;;;;;;;6.20;4.70;;;17.30;99.90;;;;;;5138522;27;20179;-78
2023/08/13 04:54:25;;;;;;;4.10;3.87;;;17.40;99.90;;;;;;5138160;27;20663;-78
2023/08/13 04:56:50;;;;;;;4.73;4.43;;;17.40;99.90;;;;;;5137986;27;20229;-77
2023/08/13 04:59:16;;;;;;;4.40;4.10;;;17.50;99.90;;;;;;5137644;27;20173;-78
2023/08/13 05:01:42;;;;;;;5.30;4.90;;;17.50;99.90;;;;;;5141442;27;20173;-78
2023/08/13 05:04:08;;;;;;;4.80;4.50;;;17.60;99.90;;;;;;5139514;27;20181;-79
2023/08/13 05:06:33;;;;;;;4.97;4.57;;;17.60;99.90;;;;;;5137902;27;20177;-79
2023/08/13 05:08:59;;;;;;;4.53;4.23;;;17.60;99.90;;;;;;5137415;27;20180;-77
2023/08/13 05:11:25;;;;;;;4.77;4.47;;;17.60;99.90;;;;;;5137888;27;20579;-78
2023/08/13 05:13:51;;;;;;;5.37;5.00;;;17.60;99.90;;;;;;5137372;27;20184;-79
2023/08/13 05:16:16;;;;;;;4.90;4.50;;;17.70;99.90;;;;;;5137199;27;20253;-77
2023/08/13 05:18:42;;;;;;;5.17;4.70;;;17.70;99.90;;;;;;5137491;27;20612;-78
2023/08/13 05:21:08;;;;;;;5.30;4.90;;;17.80;99.90;;;;;;5137274;27;20161;-78
2023/08/13 05:23:34;;;;;;;4.50;4.10;;;17.80;99.90;;;;;;5137375;27;20168;-78
2023/08/13 05:26:00;;;;;;;5.03;4.53;;;17.90;99.90;;;;;;5137452;27;20200;-77
2023/08/13 05:28:26;;;;;;;5.23;4.83;;;18.00;99.90;;;;;;5136925;27;20165;-77
2023/08/13 05:30:51;;;;;;;5.60;5.20;;;18.10;99.90;;;;;;5144450;27;20233;-79
2023/08/13 05:33:17;;;;;;;4.90;4.60;;;18.10;99.90;;;;;;5156877;27;20165;-76
2023/08/13 05:35:43;;;;;;;5.07;4.67;;;18.20;99.90;;;;;;5156490;27;20626;-78
2023/08/13 05:38:09;;;;;;;5.10;4.80;;;18.20;99.90;;;;;;5156962;27;20180;-76
2023/08/13 05:40:34;;;;;;;5.40;5.10;;;18.30;99.90;;;;;;5136383;27;20229;-77
2023/08/13 05:43:00;;;;;;;5.50;5.07;;;18.80;99.90;;;;;;5137890;27;20173;-79
2023/08/13 05:45:26;;;;;;;5.23;4.93;;;18.50;99.90;;;;;;5136293;27;20177;-78
2023/08/13 05:47:52;;;;;;;5.50;5.07;;;18.60;99.90;;;;;;5136803;27;20191;-77
2023/08/13 05:50:18;;;;;;;5.00;4.70;;;18.60;99.90;;;;;;5141394;27;20173;-79
2023/08/13 05:52:44;;;;;;;6.50;5.30;;;18.60;99.90;;;;;;5154102;27;20241;-77
2023/08/13 05:55:10;;;;;;;5.30;4.80;;;18.70;99.90;;;;;;5140169;27;20173;-77
2023/08/13 05:57:37;;;;;;;5.30;5.00;;;18.80;99.90;;;;;;5139895;27;20618;-78
2023/08/13 06:00:10;;;;;;;5.60;5.20;;;18.90;99.90;;;;;;5142747;27;20169;-79
2023/08/13 06:02:37;;;;;;;5.47;5.07;;;19.00;99.90;;;;;;5151346;27;20150;-78
2023/08/13 06:05:04;;;;;;;6.83;5.27;;;19.10;99.90;;;;;;5148199;27;20169;-78
2023/08/13 06:07:29;;;;;;;5.50;5.10;;;19.20;99.90;;;;;;5136893;27;20157;-80
2023/08/13 06:09:55;;;;;;;5.30;4.90;;;19.30;99.90;;;;;;5137004;27;20268;-77
2023/08/13 06:12:21;;;;;;;5.73;5.07;;;19.30;99.90;;;;;;5136630;27;20181;-82
2023/08/13 06:14:47;;;;;;;5.70;5.30;;;19.50;99.90;;;;;;5149992;27;20244;-78
2023/08/13 06:17:13;;;;;;;5.23;4.83;;;19.50;99.90;;;;;;5154825;27;20185;-78
2023/08/13 06:19:39;;;;;;;5.47;5.07;;;19.60;99.90;;;;;;5153198;27;20184;-78
2023/08/13 06:22:04;;;;;;;5.57;5.17;;;19.70;99.90;;;;;;5146822;27;20194;-78
2023/08/13 06:24:30;;;;;;;5.33;4.83;;;19.70;99.90;;;;;;5153561;27;20465;-77
2023/08/13 06:26:56;;;;;;;5.53;5.13;;;19.90;99.90;;;;;;5152494;27;20177;-78
2023/08/13 06:29:22;;;;;;;5.20;4.80;;;19.90;99.90;;;;;;5155454;27;20176;-78
2023/08/13 06:31:48;;;;;;;5.63;5.13;;;20.00;99.90;;;;;;5144732;27;20184;-78
2023/08/13 06:34:14;;;;;;;5.33;5.03;;;20.10;99.90;;;;;;5166046;27;20152;-78
2023/08/13 06:36:41;;;;;;;6.00;5.40;;;20.20;99.90;;;;;;5146624;27;20237;-77
2023/08/13 06:39:06;;;;;;;5.63;5.13;;;20.30;99.90;;;;;;5146621;27;20174;-77
2023/08/13 06:41:32;;;;;;;5.47;4.97;;;20.40;99.90;;;;;;5143813;27;20265;-76
2023/08/13 06:43:59;;;;;;;6.20;5.67;;;20.50;99.90;;;;;;5143559;27;20180;-76
2023/08/13 06:46:24;;;;;;;6.03;5.47;;;20.50;99.90;;;;;;5143252;28;20256;-80
2023/08/13 06:48:50;;;;;;;5.43;5.03;;;20.50;99.90;;;;;;5150816;27;20173;-78
2023/08/13 06:51:16;;;;;;;5.30;4.90;;;20.50;99.90;;;;;;5137743;27;20198;-79
2023/08/13 06:53:42;;;;;;;5.50;4.83;;;20.60;99.90;;;;;;5135603;27;20256;-78
2023/08/13 06:56:08;;;;;;;5.27;4.80;;;20.70;99.90;;;;;;5136676;27;20711;-77
2023/08/13 06:58:33;;;;;;;5.40;4.90;;;20.80;99.90;;;;;;5136368;27;20177;-78
2023/08/13 07:01:00;;;;;;;5.60;5.20;;;20.80;99.90;;;;;;5138397;27;20698;-81
2023/08/13 07:03:25;;;;;;;5.03;4.73;;;20.90;99.90;;;;;;5138979;27;20250;-76
2023/08/13 07:05:51;;;;;;;5.57;5.17;;;20.90;99.90;;;;;;5141698;27;20170;-77
2023/08/13 07:08:17;;;;;;;5.40;5.00;;;20.90;99.90;;;;;;5139266;27;20188;-78
2023/08/13 07:10:43;;;;;;;5.57;5.17;;;20.90;99.90;;;;;;5139071;27;20173;-78
2023/08/13 07:13:09;;;;;;;5.73;5.23;;;20.90;99.90;;;;;;5140914;27;20205;-79
2023/08/13 07:15:35;;;;;;;5.97;5.57;;;21.00;99.90;;;;;;5140453;27;20169;-77
2023/08/13 07:18:01;;;;;;;5.53;5.13;;;21.00;99.90;;;;;;5157337;27;20211;-79
2023/08/13 07:20:27;;;;;;;8.17;5.00;;;21.10;99.90;;;;;;5140046;27;20161;-78
2023/08/13 07:22:53;;;;;;;5.10;4.80;;;21.10;99.90;;;;;;5138117;27;20177;-78
2023/08/13 07:25:20;;;;;;;6.17;5.57;;;21.30;99.90;;;;;;5138466;27;20940;-79
2023/08/13 07:27:46;;;;;;;5.97;5.53;;;21.30;99.90;;;;;;5144738;27;20170;-79
2023/08/13 07:30:12;;;;;;;5.93;5.37;;;21.30;99.90;;;;;;5150415;27;20560;-78
2023/08/13 07:32:42;;;;;;;5.97;5.57;;;21.40;99.90;;;;;;5147613;27;20183;-78
2023/08/13 07:35:10;;;;;;;6.07;5.47;;;21.50;99.90;;;;;;5136210;27;20252;-79
2023/08/13 07:37:36;;;;;;;5.57;5.13;;;21.60;99.90;;;;;;5138578;27;20197;-79
2023/08/13 07:40:07;;;;;;;10.20;5.50;;;21.70;99.90;;;;;;5152480;27;20174;-78
2023/08/13 07:42:34;;;;;;;5.57;5.13;;;21.80;99.90;;;;;;5146112;27;20624;-77
2023/08/13 07:45:00;;;;;;;5.55;5.15;;;21.90;99.90;;;;;;5137577;27;20233;-78
2023/08/13 07:47:26;;;;;;;5.87;5.47;;;22.00;99.90;;;;;;5137783;27;20189;-77
2023/08/13 07:49:52;;;;;;;5.43;5.03;;;22.00;99.90;;;;;;5138065;27;20185;-79
2023/08/13 07:52:18;;;;;;;5.50;5.00;;;22.00;99.90;;;;;;5137487;27;20219;-77
2023/08/13 07:54:44;;;;;;;5.28;4.78;;;22.10;99.90;;;;;;5137311;27;20173;-77
2023/08/13 07:57:09;;;;;;;5.10;4.80;;;22.20;99.90;;;;;;5137649;27;20224;-79
2023/08/13 07:59:36;;;;;;;5.35;4.97;;;22.20;99.90;;;;;;5137097;27;20184;-77
2023/08/13 08:02:03;;;;;;;4.93;4.63;;;22.30;99.90;;;;;;5138249;27;20184;-78
2023/08/13 08:04:30;;;;;;;5.00;4.70;;;22.40;99.90;;;;;;5139497;27;20185;-79
2023/08/13 08:06:56;;;;;;;5.20;4.80;;;22.50;99.90;;;;;;5143183;27;20636;-77
2023/08/13 08:09:22;;;;;;;4.95;4.65;;;22.60;99.90;;;;;;5138130;27;20264;-79
2023/08/13 08:11:47;;;;;;;5.53;5.13;;;22.60;99.90;;;;;;5137049;27;20185;-80
2023/08/13 08:14:13;;;;;;;5.07;4.67;;;22.70;99.90;;;;;;5155166;27;20236;-78
2023/08/13 08:16:39;;;;;;;5.10;4.70;;;22.70;99.90;;;;;;5154252;27;20234;-78
2023/08/13 08:19:05;;;;;;;4.83;4.47;;;22.80;99.90;;;;;;5137191;27;20174;-77
2023/08/13 08:21:31;;;;;;;5.20;4.80;;;22.90;99.90;;;;;;5119579;27;20184;-78
2023/08/13 08:23:57;;;;;;;5.47;5.10;;;22.90;99.90;;;;;;5118177;28;20226;-77
2023/08/13 08:26:23;;;;;;;4.85;4.55;;;22.90;99.90;;;;;;5130430;27;20174;-77
2023/08/13 08:28:49;;;;;;;5.27;4.87;;;23.00;99.90;;;;;;5138551;27;20201;-77
2023/08/13 08:31:15;;;;;;;5.00;4.50;;;23.10;99.90;;;;;;5128948;27;20188;-79
2023/08/13 08:33:41;;;;;;;5.60;5.10;;;23.20;99.90;;;;;;5124871;27;20185;-77
2023/08/13 08:36:06;;;;;;;4.97;4.68;;;23.20;99.90;;;;;;5140072;27;20172;-78
2023/08/13 08:38:32;;;;;;;5.22;4.93;;;23.30;99.90;;;;;;5140289;27;20830;-79
2023/08/13 08:40:59;;;;;;;4.70;4.40;;;23.30;99.90;;;;;;5147155;27;20206;-78
2023/08/13 08:43:30;;;;;;;5.20;4.85;;;23.40;99.90;;;;;;5147143;27;20176;-79
2023/08/13 08:45:58;;;;;;;4.82;4.53;;;23.50;99.90;;;;;;5152309;27;20172;-80
2023/08/13 08:48:29;;;;;;;5.20;4.88;;;23.60;99.90;;;;;;5145240;27;20184;-76
2023/08/13 08:50:56;;;;;;;6.57;4.47;;;23.70;99.90;;;;;;5136617;27;20169;-79
2023/08/13 08:53:22;;;;;;;4.90;4.60;;;23.70;99.90;;;;;;5138280;27;20398;-78
2023/08/13 08:55:52;;;;;;;5.28;4.90;;;23.70;99.90;;;;;;5138692;27;20212;-78
2023/08/13 08:58:18;;;;;;;5.00;4.70;;;23.70;99.90;;;;;;5142281;27;20195;-78
2023/08/13 09:00:44;;;;;;;5.03;4.72;;;23.70;99.90;;;;;;5146771;27;20169;-77
2023/08/13 09:03:10;;;;;;;5.85;5.03;;;23.90;99.90;;;;;;5139348;27;20176;-79
2023/08/13 09:05:37;;;;;;;5.75;5.25;;;23.90;99.90;;;;;;5153313;27;20153;-76
2023/08/13 09:08:20;;;;;;;5.05;4.57;;;23.80;99.90;;;;;;5141637;27;20183;-79
2023/08/13 09:10:46;;;;;;;5.00;4.70;;;23.90;99.90;;;;;;5119512;27;20181;-78
2023/08/13 09:13:12;;;;;;;4.82;4.53;;;23.90;99.90;;;;;;5129912;27;20230;-78
2023/08/13 09:15:43;;;;;;;4.75;4.50;;;24.10;99.90;;;;;;5145335;27;20217;-80
2023/08/13 09:18:10;;;;;;;4.85;4.55;;;24.20;99.90;;;;;;5135577;27;20212;-78
2023/08/13 09:20:46;;;;;;;4.60;4.30;;;24.30;99.90;;;;;;5119328;28;20534;-78
2023/08/13 09:23:23;;;;;;;5.68;4.60;;;24.40;99.90;;;;;;5132631;27;20176;-78
2023/08/13 09:25:53;;;;;;;5.13;4.72;;;24.50;99.90;;;;;;5139840;27;20194;-78
2023/08/13 09:28:19;;;;;;;4.82;4.53;;;24.60;99.90;;;;;;5139286;27;20208;-78
2023/08/13 09:30:46;;;;;;;4.97;4.47;;;24.70;99.90;;;;;;5138652;27;20624;-78
2023/08/13 09:33:15;;;;;;;4.95;4.65;;;24.80;99.90;;;;;;5140616;27;20219;-77
2023/08/13 09:35:44;;;;;;;4.53;4.10;;;24.80;99.90;;;;;;5139642;27;20199;-78
2023/08/13 09:38:11;;;;;;;4.72;4.43;;;24.90;99.90;;;;;;5140353;27;20207;-78
2023/08/13 09:40:37;;;;;;;4.70;4.40;;;25.00;99.90;;;;;;5135214;27;20213;-79
2023/08/13 09:43:06;;;;;;;4.80;4.50;;;25.00;99.90;;;;;;5139407;27;20185;-81
2023/08/13 09:45:33;;;;;;;5.80;4.97;;;25.00;99.90;;;;;;5139467;27;20197;-79
2023/08/13 09:48:06;;;;;;;4.47;4.18;;;25.10;99.90;;;;;;5137627;27;20712;-80
2023/08/13 09:50:38;;;;;;;4.10;3.80;;;25.20;99.90;;;;;;5144407;27;20177;-78
2023/08/13 09:53:08;;;;;;;4.20;4.00;;;25.30;99.90;;;;;;5146230;27;20271;-78
2023/08/13 09:55:39;;;;;;;4.38;4.07;;;25.40;99.90;;;;;;5163816;27;20674;-78
2023/08/13 09:58:08;;;;;;;4.20;4.00;;;25.40;99.90;;;;;;5162038;27;20200;-77
2023/08/13 10:00:36;;;;;;;4.60;4.30;;;25.40;99.90;;;;;;5161951;27;20172;-78
2023/08/13 10:03:02;;;;;;;4.18;3.97;;;25.50;99.90;;;;;;5164648;27;20303;-80
2023/08/13 10:05:32;;;;;;;3.90;3.70;;;25.60;99.90;;;;;;5147167;27;20188;-78
2023/08/13 10:07:59;;;;;;;4.43;4.15;;;25.60;99.90;;;;;;5137483;27;20193;-78
2023/08/13 10:10:26;;;;;;;4.90;4.57;;;25.60;99.90;;;;;;5136129;27;20639;-80
2023/08/13 10:12:52;;;;;;;4.30;4.10;;;25.60;99.90;;;;;;5136987;27;20181;-79
2023/08/13 10:15:20;;;;;;;3.97;3.70;;;25.60;99.90;;;;;;5137340;27;20181;-77
2023/08/13 10:17:46;;;;;;;5.32;4.15;;;25.80;99.90;;;;;;5136303;27;20207;-78
2023/08/13 10:20:12;;;;;;;3.92;3.70;;;25.90;99.90;;;;;;5117676;27;20272;-80
2023/08/13 10:22:39;;;;;;;23.55;21.15;;;25.90;99.90;;;;;;5115802;28;20226;-79
2023/08/13 10:25:07;;;;;;;9.38;8.48;;;26.00;99.90;;;;;;5116771;27;20166;-78
2023/08/13 10:27:37;;;;;;;6.03;5.43;;;26.00;99.90;;;;;;5139664;27;20181;-80
2023/08/13 10:30:11;;;;;;;4.78;4.47;;;26.00;99.90;;;;;;5138485;27;20276;-77
2023/08/13 10:32:54;;;;;;;10.23;9.43;;;26.00;99.90;;;;;;5136134;27;20200;-78
2023/08/13 10:35:24;;;;;;;5.97;5.00;;;26.10;99.90;;;;;;5140245;27;20512;-77
2023/08/13 10:37:52;;;;;;;4.80;4.10;;;26.20;99.90;;;;;;5140483;27;20205;-78
2023/08/13 10:40:19;;;;;;;4.47;4.00;;;26.20;99.90;;;;;;5139200;27;20306;-80
2023/08/13 10:42:55;;;;;;;5.32;4.82;;;26.30;99.90;;;;;;5156580;27;20166;-80
2023/08/13 10:45:29;;;;;;;7.25;6.65;;;26.30;99.90;;;;;;5140726;27;20169;-80
2023/08/13 10:48:25;;;;;;;4.60;4.30;;;26.30;99.90;;;;;;5139875;27;20267;-80
2023/08/13 10:50:55;;;;;;;8.38;7.68;;;26.30;99.90;;;;;;5138175;27;20285;-79
2023/08/13 10:53:26;;;;;;;5.32;4.93;;;26.30;99.90;;;;;;5146077;27;20192;-80
2023/08/13 10:55:54;;;;;;;4.38;4.07;;;26.30;99.90;;;;;;5149900;27;20225;-78
2023/08/13 10:58:27;;;;;;;4.43;4.20;;;26.30;99.90;;;;;;5148853;27;20264;-78
2023/08/13 11:01:16;;;;;;;4.53;4.28;;;26.40;99.90;;;;;;5149390;27;20153;-79
2023/08/13 11:03:54;;;;;;;4.20;3.90;;;26.40;99.90;;;;;;5143493;27;20721;-78
2023/08/13 11:06:22;;;;;;;4.30;4.00;;;26.50;99.90;;;;;;5160851;27;20201;-77
2023/08/13 11:08:48;;;;;;;4.00;3.80;;;26.50;99.90;;;;;;5146205;27;20169;-78
2023/08/13 11:11:18;;;;;;;4.28;4.07;;;26.60;99.90;;;;;;5138714;27;20173;-78
2023/08/13 11:13:45;;;;;;;4.07;3.88;;;26.70;99.90;;;;;;5138799;27;20177;-79
2023/08/13 11:16:11;;;;;;;3.90;3.53;;;26.70;99.90;;;;;;5138438;27;20184;-80
2023/08/13 11:18:37;;;;;;;3.85;3.65;;;26.70;99.90;;;;;;5129542;27;20178;-77
2023/08/13 11:21:05;;;;;;;3.53;3.33;;;26.70;99.90;;;;;;5126999;27;20169;-78
2023/08/13 11:23:31;;;;;;;3.60;3.40;;;26.70;99.90;;;;;;5145909;27;20181;-80
2023/08/13 11:25:56;;;;;;;3.92;3.65;;;26.80;99.90;;;;;;5146604;27;20184;-82
2023/08/13 11:28:24;;;;;;;3.50;3.20;;;26.90;99.90;;;;;;5150698;27;20191;-80
2023/08/13 11:30:55;;;;;;;3.78;3.58;;;27.00;99.90;;;;;;5133379;27;20342;-79
2023/08/13 11:33:21;;;;;;;3.60;3.42;;;27.10;99.90;;;;;;5127257;27;20662;-80
2023/08/13 11:35:47;;;;;;;3.45;3.25;;;27.10;99.90;;;;;;5138335;27;20193;-79
2023/08/13 11:38:14;;;;;;;3.72;3.53;;;27.20;99.90;;;;;;5137095;27;20205;-79
2023/08/13 11:40:40;;;;;;;3.67;3.38;;;27.20;99.90;;;;;;5143702;27;20218;-78
2023/08/13 11:43:10;;;;;;;3.60;3.40;;;27.20;99.90;;;;;;5138932;27;20237;-78
2023/08/13 11:45:35;;;;;;;3.50;3.30;;;27.30;99.90;;;;;;5116225;27;20174;-81
2023/08/13 11:48:15;;;;;;;3.80;3.20;;;27.30;99.90;;;;;;5117959;28;20652;-81
2023/08/13 11:50:46;;;;;;;4.63;4.32;;;27.40;99.90;;;;;;5117515;27;20178;-79
2023/08/13 11:53:13;;;;;;;3.75;3.33;;;27.60;99.90;;;;;;5118070;28;20496;-80
2023/08/13 11:55:47;;;;;;;3.60;3.33;;;27.60;99.90;;;;;;5118031;28;20274;-81
2023/08/13 11:58:20;;;;;;;3.67;3.47;;;27.60;99.90;;;;;;5137210;27;20205;-81
2023/08/13 12:00:49;;;;;;;3.50;3.28;;;27.50;99.90;;;;;;5139561;27;20162;-81
2023/08/13 12:03:16;;;;;;;3.95;3.58;;;27.50;99.90;;;;;;5139168;27;20177;-79
2023/08/13 12:05:42;;;;;;;3.75;3.50;;;27.50;99.90;;;;;;5138257;27;20318;-79
2023/08/13 12:08:09;;;;;;;3.63;3.42;;;27.50;99.90;;;;;;5137436;27;20568;-79
2023/08/13 12:10:37;;;;;;;3.83;3.63;;;27.60;99.90;;;;;;5137961;27;20604;-79
2023/08/13 12:13:04;;;;;;;3.58;3.38;;;28.60;99.90;;;;;;5138190;27;20180;-80
2023/08/13 12:15:30;;;;;;;3.75;3.55;;;27.70;99.90;;;;;;5138139;27;20675;-80
2023/08/13 12:17:59;;;;;;;3.45;3.25;;;27.60;99.90;;;;;;5131094;27;20569;-82
2023/08/13 12:20:27;;;;;;;3.72;3.50;;;27.70;99.90;;;;;;5149228;27;20184;-81
2023/08/13 12:22:53;;;;;;;3.40;3.30;;;27.70;99.90;;;;;;5138631;27;20184;-79
2023/08/13 12:25:19;;;;;;;3.67;3.47;;;27.60;99.90;;;;;;5138265;27;20173;-81
2023/08/13 12:27:47;;;;;;;3.60;3.40;;;27.70;99.90;;;;;;5137965;27;20200;-80
2023/08/13 12:30:14;;;;;;;3.60;3.40;;;27.80;99.90;;;;;;5146580;27;20226;-83
2023/08/13 12:32:40;;;;;;;3.85;3.55;;;27.70;99.90;;;;;;5150180;27;20193;-79
2023/08/13 12:35:08;;;;;;;3.75;3.55;;;27.70;99.90;;;;;;5138860;27;20177;-79
2023/08/13 12:37:34;;;;;;;4.70;4.30;;;27.70;99.90;;;;;;5136769;27;20585;-80
2023/08/13 12:40:00;;;;;;;3.67;3.47;;;27.70;99.90;;;;;;5138368;27;20245;-81
2023/08/13 12:42:26;;;;;;;3.92;3.72;;;27.80;99.90;;;;;;5142129;27;20505;-79
2023/08/13 12:44:51;;;;;;;3.80;3.50;;;27.70;99.90;;;;;;5139865;27;20215;-80
2023/08/13 12:47:17;;;;;;;3.65;3.42;;;27.70;99.90;;;;;;5143160;27;20200;-78